Lupton, AZ

2:21 AM MDT on May 06, 2015 (GMT -0600)
RAWS | | Change Station
CLOSE
Current Station
Personal Weather Station
Location: Zuni, NM
Elevation: 6611 ft
Nearby Weather Stations

Elev 6611 ft 35.14 °N, 108.94 °W | Updated 39 minutes ago

Mostly Cloudy
Mostly Cloudy
47 °F
Feels Like 44 °F
N
6
Wind Variable Wind from WSW
Gusts 11.0 mph

Today
High -- | Low -- °F
--% Chance of Precip.
Yesterday
High -- | Low -- °F
Precip. -- in
6:19 AM 8:06 PM
Waning Gibbous, 95% visible
Pressure 29.76 in
Visibility 10.0 miles
Clouds Scattered Clouds 3500 ft
Scattered Clouds 4900 ft
Windchill 44 °F
Dew Point 45 °F
Humidity 94%
Rainfall in
Snow Depth Not available.
UV 0 out of 12
Pollen .80 out of 12
Air Quality Not available.
Flu Activity Local Activity
METAR KGUP 060753Z AUTO 22012KT 10SM SCT035 SCT049 08/07 A2999 RMK AO2 SLP077 T00830067

More Conditions Fewer Conditions

Pressure 29.76 in
Visibility 10.0 miles
Clouds Scattered Clouds 3500 ft
Scattered Clouds 4900 ft
Windchill 44 °F
Dew Point 45 °F
Humidity 94%
Rainfall in
Snow Depth Not available.
UV 0 out of 12
Pollen .80 out of 12
Air Quality Not available.
Flu Activity Local Activity
METAR KGUP 060753Z AUTO 22012KT 10SM SCT035 SCT049 08/07 A2999 RMK AO2 SLP077 T00830067

More Conditions Fewer Conditions

10-Day Weather Forecast

Almanac

Astronomy

May. 06, 2015 Rise Set
Actual Time
Civil Twilight
Nautical Twilight
Astronomical Twilight
Moon
Length of Visible Light
Length of Day
Tomorrow will be .
, % of the Moon is Illuminated

Today's Extremes

State Highs State Lows

Community

WunderPhotos

Upload Photos

1,818,852 photos uploaded!

WunderBlogs® & News

Nearby

Air Quality

  Air Quality AQ Index Pollutant
Not available.

Snow Depth

Station Depth Elevation

Earthquake Activity

City Distance Mag. Time & Date
Minimum magnitude displayed is 2.5.

Coastal Water Temperatures

Place Temperature

Stations

Nearby Weather Stations

Station Location Temp. Windchill Dew Point Humidity Wind Precip. Elev Updated Type